sensor_id;sensor_type;location;lat;lon;timestamp;P1;P2;P0
80643;PMS5003;70010;60.224;24.712;2023-12-20T00:02:24;2;0;
80643;PMS5003;70010;60.224;24.712;2023-12-20T00:04:50;0;0;
80643;PMS5003;70010;60.224;24.712;2023-12-20T00:07:15;0;0;
80643;PMS5003;70010;60.224;24.712;2023-12-20T00:09:41;1;0;
80643;PMS5003;70010;60.224;24.712;2023-12-20T00:12:06;1;1;
80643;PMS5003;70010;60.224;24.712;2023-12-20T00:14:31;1;0;
80643;PMS5003;70010;60.224;24.712;2023-12-20T00:16:57;1;1;
80643;PMS5003;70010;60.224;24.712;2023-12-20T00:19:22;0;0;
80643;PMS5003;70010;60.224;24.712;2023-12-20T00:21:47;0;0;
80643;PMS5003;70010;60.224;24.712;2023-12-20T00:24:13;0;0;
80643;PMS5003;70010;60.224;24.712;2023-12-20T00:26:38;0;0;
80643;PMS5003;70010;60.224;24.712;2023-12-20T00:29:03;0;0;
80643;PMS5003;70010;60.224;24.712;2023-12-20T00:31:29;0;0;
80643;PMS5003;70010;60.224;24.712;2023-12-20T00:33:54;0;0;
80643;PMS5003;70010;60.224;24.712;2023-12-20T00:36:19;1;1;
80643;PMS5003;70010;60.224;24.712;2023-12-20T00:38:45;0;0;
80643;PMS5003;70010;60.224;24.712;2023-12-20T00:41:10;0;0;
80643;PMS5003;70010;60.224;24.712;2023-12-20T00:43:36;0;0;
80643;PMS5003;70010;60.224;24.712;2023-12-20T00:46:01;0;0;
80643;PMS5003;70010;60.224;24.712;2023-12-20T00:48:26;0;0;
80643;PMS5003;70010;60.224;24.712;2023-12-20T00:50:51;1;1;
80643;PMS5003;70010;60.224;24.712;2023-12-20T00:53:17;0;0;
80643;PMS5003;70010;60.224;24.712;2023-12-20T00:55:42;0;0;
80643;PMS5003;70010;60.224;24.712;2023-12-20T00:58:07;0;0;
80643;PMS5003;70010;60.224;24.712;2023-12-20T01:00:33;1;1;
80643;PMS5003;70010;60.224;24.712;2023-12-20T01:02:58;0;0;
80643;PMS5003;70010;60.224;24.712;2023-12-20T01:05:23;0;0;
80643;PMS5003;70010;60.224;24.712;2023-12-20T01:07:49;0;0;
80643;PMS5003;70010;60.224;24.712;2023-12-20T01:10:14;0;0;
80643;PMS5003;70010;60.224;24.712;2023-12-20T01:12:40;0;0;
80643;PMS5003;70010;60.224;24.712;2023-12-20T01:15:05;2;0;
80643;PMS5003;70010;60.224;24.712;2023-12-20T01:17:30;1;1;
80643;PMS5003;70010;60.224;24.712;2023-12-20T01:19:56;0;0;
80643;PMS5003;70010;60.224;24.712;2023-12-20T01:22:21;0;0;
80643;PMS5003;70010;60.224;24.712;2023-12-20T01:24:47;0;0;
80643;PMS5003;70010;60.224;24.712;2023-12-20T01:27:12;0;0;
80643;PMS5003;70010;60.224;24.712;2023-12-20T01:29:37;0;0;
80643;PMS5003;70010;60.224;24.712;2023-12-20T01:32:03;0;0;
80643;PMS5003;70010;60.224;24.712;2023-12-20T01:34:28;3;0;
80643;PMS5003;70010;60.224;24.712;2023-12-20T01:36:53;0;0;
80643;PMS5003;70010;60.224;24.712;2023-12-20T01:39:19;0;0;
80643;PMS5003;70010;60.224;24.712;2023-12-20T01:41:44;0;0;
80643;PMS5003;70010;60.224;24.712;2023-12-20T01:44:09;0;0;
80643;PMS5003;70010;60.224;24.712;2023-12-20T01:46:35;0;0;
80643;PMS5003;70010;60.224;24.712;2023-12-20T01:49:00;0;0;
80643;PMS5003;70010;60.224;24.712;2023-12-20T01:51:25;0;0;
80643;PMS5003;70010;60.224;24.712;2023-12-20T01:53:51;1;0;
80643;PMS5003;70010;60.224;24.712;2023-12-20T01:56:16;1;0;
80643;PMS5003;70010;60.224;24.712;2023-12-20T01:58:43;0;0;
80643;PMS5003;70010;60.224;24.712;2023-12-20T02:01:07;1;1;
80643;PMS5003;70010;60.224;24.712;2023-12-20T02:03:32;0;0;
80643;PMS5003;70010;60.224;24.712;2023-12-20T02:05:57;1;0;
80643;PMS5003;70010;60.224;24.712;2023-12-20T02:08:23;2;0;
80643;PMS5003;70010;60.224;24.712;2023-12-20T02:10:48;0;0;
80643;PMS5003;70010;60.224;24.712;2023-12-20T02:13:14;0;0;
80643;PMS5003;70010;60.224;24.712;2023-12-20T02:15:39;2;1;
80643;PMS5003;70010;60.224;24.712;2023-12-20T02:18:04;0;0;
80643;PMS5003;70010;60.224;24.712;2023-12-20T02:20:30;1;1;
80643;PMS5003;70010;60.224;24.712;2023-12-20T02:22:55;0;0;
80643;PMS5003;70010;60.224;24.712;2023-12-20T02:25:20;0;0;
80643;PMS5003;70010;60.224;24.712;2023-12-20T02:27:46;0;0;
80643;PMS5003;70010;60.224;24.712;2023-12-20T02:30:11;0;0;
80643;PMS5003;70010;60.224;24.712;2023-12-20T02:32:36;3;0;
80643;PMS5003;70010;60.224;24.712;2023-12-20T02:35:02;1;1;
80643;PMS5003;70010;60.224;24.712;2023-12-20T02:37:27;2;1;
80643;PMS5003;70010;60.224;24.712;2023-12-20T02:39:53;2;1;
80643;PMS5003;70010;60.224;24.712;2023-12-20T02:42:18;1;0;
80643;PMS5003;70010;60.224;24.712;2023-12-20T02:44:43;0;0;
80643;PMS5003;70010;60.224;24.712;2023-12-20T02:47:08;0;0;
80643;PMS5003;70010;60.224;24.712;2023-12-20T02:49:34;0;0;
80643;PMS5003;70010;60.224;24.712;2023-12-20T02:51:59;1;1;
80643;PMS5003;70010;60.224;24.712;2023-12-20T02:54:25;0;0;
80643;PMS5003;70010;60.224;24.712;2023-12-20T02:56:50;4;1;
80643;PMS5003;70010;60.224;24.712;2023-12-20T02:59:15;0;0;
80643;PMS5003;70010;60.224;24.712;2023-12-20T03:01:42;0;0;
80643;PMS5003;70010;60.224;24.712;2023-12-20T03:04:06;2;0;
80643;PMS5003;70010;60.224;24.712;2023-12-20T03:06:31;1;1;
80643;PMS5003;70010;60.224;24.712;2023-12-20T03:08:57;0;0;
80643;PMS5003;70010;60.224;24.712;2023-12-20T03:11:26;0;0;
80643;PMS5003;70010;60.224;24.712;2023-12-20T03:13:47;3;0;
80643;PMS5003;70010;60.224;24.712;2023-12-20T03:16:13;2;0;
80643;PMS5003;70010;60.224;24.712;2023-12-20T03:18:38;1;1;
80643;PMS5003;70010;60.224;24.712;2023-12-20T03:21:04;2;1;
80643;PMS5003;70010;60.224;24.712;2023-12-20T03:23:29;1;0;
80643;PMS5003;70010;60.224;24.712;2023-12-20T03:25:54;0;0;
80643;PMS5003;70010;60.224;24.712;2023-12-20T03:28:20;1;1;
80643;PMS5003;70010;60.224;24.712;2023-12-20T03:30:45;0;0;
80643;PMS5003;70010;60.224;24.712;2023-12-20T03:33:10;0;0;
80643;PMS5003;70010;60.224;24.712;2023-12-20T03:35:36;1;1;
80643;PMS5003;70010;60.224;24.712;2023-12-20T03:38:01;3;0;
80643;PMS5003;70010;60.224;24.712;2023-12-20T03:40:27;1;0;
80643;PMS5003;70010;60.224;24.712;2023-12-20T03:42:52;1;1;
80643;PMS5003;70010;60.224;24.712;2023-12-20T03:45:17;0;0;
80643;PMS5003;70010;60.224;24.712;2023-12-20T03:47:43;0;0;
80643;PMS5003;70010;60.224;24.712;2023-12-20T03:50:08;1;1;
80643;PMS5003;70010;60.224;24.712;2023-12-20T03:52:33;1;1;
80643;PMS5003;70010;60.224;24.712;2023-12-20T03:54:59;0;0;
80643;PMS5003;70010;60.224;24.712;2023-12-20T03:57:24;0;0;
80643;PMS5003;70010;60.224;24.712;2023-12-20T03:59:50;0;0;
80643;PMS5003;70010;60.224;24.712;2023-12-20T04:02:15;1;1;
80643;PMS5003;70010;60.224;24.712;2023-12-20T04:04:40;1;1;
80643;PMS5003;70010;60.224;24.712;2023-12-20T04:07:06;0;0;
80643;PMS5003;70010;60.224;24.712;2023-12-20T04:09:31;0;0;
80643;PMS5003;70010;60.224;24.712;2023-12-20T04:11:56;1;1;
80643;PMS5003;70010;60.224;24.712;2023-12-20T04:14:22;0;0;
80643;PMS5003;70010;60.224;24.712;2023-12-20T04:16:47;0;0;
80643;PMS5003;70010;60.224;24.712;2023-12-20T04:19:13;1;0;
80643;PMS5003;70010;60.224;24.712;2023-12-20T04:21:38;3;3;
80643;PMS5003;70010;60.224;24.712;2023-12-20T04:24:04;1;1;
80643;PMS5003;70010;60.224;24.712;2023-12-20T04:26:29;3;0;
80643;PMS5003;70010;60.224;24.712;2023-12-20T04:28:54;1;1;
80643;PMS5003;70010;60.224;24.712;2023-12-20T04:31:19;1;1;
80643;PMS5003;70010;60.224;24.712;2023-12-20T04:33:45;1;1;
80643;PMS5003;70010;60.224;24.712;2023-12-20T04:36:10;1;1;
80643;PMS5003;70010;60.224;24.712;2023-12-20T04:38:35;2;1;
80643;PMS5003;70010;60.224;24.712;2023-12-20T04:41:01;1;1;
80643;PMS5003;70010;60.224;24.712;2023-12-20T04:43:26;0;0;
80643;PMS5003;70010;60.224;24.712;2023-12-20T04:45:51;0;0;
80643;PMS5003;70010;60.224;24.712;2023-12-20T04:48:17;4;1;
80643;PMS5003;70010;60.224;24.712;2023-12-20T04:50:42;0;0;
80643;PMS5003;70010;60.224;24.712;2023-12-20T04:53:08;4;1;
80643;PMS5003;70010;60.224;24.712;2023-12-20T04:55:33;2;1;
80643;PMS5003;70010;60.224;24.712;2023-12-20T04:57:58;5;0;
80643;PMS5003;70010;60.224;24.712;2023-12-20T05:00:23;0;0;
80643;PMS5003;70010;60.224;24.712;2023-12-20T05:02:49;0;0;
80643;PMS5003;70010;60.224;24.712;2023-12-20T05:05:14;2;1;
80643;PMS5003;70010;60.224;24.712;2023-12-20T05:07:39;1;1;
80643;PMS5003;70010;60.224;24.712;2023-12-20T05:10:05;0;0;
80643;PMS5003;70010;60.224;24.712;2023-12-20T05:12:30;1;1;
80643;PMS5003;70010;60.224;24.712;2023-12-20T05:14:55;1;1;
80643;PMS5003;70010;60.224;24.712;2023-12-20T05:17:20;1;1;
80643;PMS5003;70010;60.224;24.712;2023-12-20T05:19:46;0;0;
80643;PMS5003;70010;60.224;24.712;2023-12-20T05:22:11;5;1;
80643;PMS5003;70010;60.224;24.712;2023-12-20T05:24:36;2;2;
80643;PMS5003;70010;60.224;24.712;2023-12-20T05:27:02;2;0;
80643;PMS5003;70010;60.224;24.712;2023-12-20T05:29:27;1;1;
80643;PMS5003;70010;60.224;24.712;2023-12-20T05:31:52;1;1;
80643;PMS5003;70010;60.224;24.712;2023-12-20T05:34:18;1;0;
80643;PMS5003;70010;60.224;24.712;2023-12-20T05:36:43;1;1;
80643;PMS5003;70010;60.224;24.712;2023-12-20T05:39:09;1;1;
80643;PMS5003;70010;60.224;24.712;2023-12-20T05:41:34;3;1;
80643;PMS5003;70010;60.224;24.712;2023-12-20T05:43:59;3;1;
80643;PMS5003;70010;60.224;24.712;2023-12-20T05:46:25;1;0;
80643;PMS5003;70010;60.224;24.712;2023-12-20T05:48:50;1;1;
80643;PMS5003;70010;60.224;24.712;2023-12-20T05:51:15;7;1;
80643;PMS5003;70010;60.224;24.712;2023-12-20T05:53:40;3;1;
80643;PMS5003;70010;60.224;24.712;2023-12-20T05:56:06;1;1;
80643;PMS5003;70010;60.224;24.712;2023-12-20T05:58:31;4;1;
80643;PMS5003;70010;60.224;24.712;2023-12-20T06:00:56;0;0;
80643;PMS5003;70010;60.224;24.712;2023-12-20T06:03:22;2;1;
80643;PMS5003;70010;60.224;24.712;2023-12-20T06:05:47;0;0;
80643;PMS5003;70010;60.224;24.712;2023-12-20T06:08:12;2;0;
80643;PMS5003;70010;60.224;24.712;2023-12-20T06:10:38;5;2;
80643;PMS5003;70010;60.224;24.712;2023-12-20T06:13:03;2;0;
80643;PMS5003;70010;60.224;24.712;2023-12-20T06:15:29;0;0;
80643;PMS5003;70010;60.224;24.712;2023-12-20T06:17:54;0;0;
80643;PMS5003;70010;60.224;24.712;2023-12-20T06:20:19;0;0;
80643;PMS5003;70010;60.224;24.712;2023-12-20T06:22:44;1;1;
80643;PMS5003;70010;60.224;24.712;2023-12-20T06:25:10;1;1;
80643;PMS5003;70010;60.224;24.712;2023-12-20T06:27:35;4;2;
80643;PMS5003;70010;60.224;24.712;2023-12-20T06:30:00;0;0;
80643;PMS5003;70010;60.224;24.712;2023-12-20T06:32:26;0;0;
80643;PMS5003;70010;60.224;24.712;2023-12-20T06:34:51;1;1;
80643;PMS5003;70010;60.224;24.712;2023-12-20T06:37:16;1;1;
80643;PMS5003;70010;60.224;24.712;2023-12-20T06:39:42;2;1;
80643;PMS5003;70010;60.224;24.712;2023-12-20T06:42:07;1;1;
80643;PMS5003;70010;60.224;24.712;2023-12-20T06:44:33;0;0;
80643;PMS5003;70010;60.224;24.712;2023-12-20T06:46:58;1;1;
80643;PMS5003;70010;60.224;24.712;2023-12-20T06:49:23;3;1;
80643;PMS5003;70010;60.224;24.712;2023-12-20T06:51:49;4;2;
80643;PMS5003;70010;60.224;24.712;2023-12-20T06:54:14;0;0;
80643;PMS5003;70010;60.224;24.712;2023-12-20T06:56:39;1;1;
80643;PMS5003;70010;60.224;24.712;2023-12-20T06:59:05;1;1;
80643;PMS5003;70010;60.224;24.712;2023-12-20T07:01:30;2;1;
80643;PMS5003;70010;60.224;24.712;2023-12-20T07:03:55;1;1;
80643;PMS5003;70010;60.224;24.712;2023-12-20T07:06:21;1;0;
80643;PMS5003;70010;60.224;24.712;2023-12-20T07:08:46;1;1;
80643;PMS5003;70010;60.224;24.712;2023-12-20T07:11:12;2;2;
80643;PMS5003;70010;60.224;24.712;2023-12-20T07:13:37;2;1;
80643;PMS5003;70010;60.224;24.712;2023-12-20T07:16:02;3;2;
80643;PMS5003;70010;60.224;24.712;2023-12-20T07:18:28;1;1;
80643;PMS5003;70010;60.224;24.712;2023-12-20T07:20:53;1;1;
80643;PMS5003;70010;60.224;24.712;2023-12-20T07:23:18;1;1;
80643;PMS5003;70010;60.224;24.712;2023-12-20T07:25:44;5;1;
80643;PMS5003;70010;60.224;24.712;2023-12-20T07:28:09;1;1;
80643;PMS5003;70010;60.224;24.712;2023-12-20T07:30:34;4;1;
80643;PMS5003;70010;60.224;24.712;2023-12-20T07:32:59;2;1;
80643;PMS5003;70010;60.224;24.712;2023-12-20T07:35:25;0;0;
80643;PMS5003;70010;60.224;24.712;2023-12-20T07:37:50;2;2;
80643;PMS5003;70010;60.224;24.712;2023-12-20T07:40:15;1;1;
80643;PMS5003;70010;60.224;24.712;2023-12-20T07:42:41;0;0;
80643;PMS5003;70010;60.224;24.712;2023-12-20T07:45:06;2;2;
80643;PMS5003;70010;60.224;24.712;2023-12-20T07:47:32;1;1;
80643;PMS5003;70010;60.224;24.712;2023-12-20T07:49:57;2;1;
80643;PMS5003;70010;60.224;24.712;2023-12-20T07:52:22;2;0;
80643;PMS5003;70010;60.224;24.712;2023-12-20T07:54:48;2;2;
80643;PMS5003;70010;60.224;24.712;2023-12-20T07:57:13;2;0;
80643;PMS5003;70010;60.224;24.712;2023-12-20T07:59:38;4;2;
80643;PMS5003;70010;60.224;24.712;2023-12-20T08:02:03;1;1;
80643;PMS5003;70010;60.224;24.712;2023-12-20T08:04:29;1;1;
80643;PMS5003;70010;60.224;24.712;2023-12-20T08:06:54;3;2;
80643;PMS5003;70010;60.224;24.712;2023-12-20T08:09:19;1;1;
80643;PMS5003;70010;60.224;24.712;2023-12-20T08:11:45;4;1;
80643;PMS5003;70010;60.224;24.712;2023-12-20T08:14:10;2;1;
80643;PMS5003;70010;60.224;24.712;2023-12-20T08:16:35;3;1;
80643;PMS5003;70010;60.224;24.712;2023-12-20T08:19:01;1;1;
80643;PMS5003;70010;60.224;24.712;2023-12-20T08:21:26;0;0;
80643;PMS5003;70010;60.224;24.712;2023-12-20T08:23:52;4;3;
80643;PMS5003;70010;60.224;24.712;2023-12-20T08:26:18;2;1;
80643;PMS5003;70010;60.224;24.712;2023-12-20T08:28:43;2;2;
80643;PMS5003;70010;60.224;24.712;2023-12-20T08:31:13;0;0;
80643;PMS5003;70010;60.224;24.712;2023-12-20T08:33:33;0;0;
80643;PMS5003;70010;60.224;24.712;2023-12-20T08:35:59;1;1;
80643;PMS5003;70010;60.224;24.712;2023-12-20T08:38:24;0;0;
80643;PMS5003;70010;60.224;24.712;2023-12-20T08:40:50;2;1;
80643;PMS5003;70010;60.224;24.712;2023-12-20T08:43:15;2;0;
80643;PMS5003;70010;60.224;24.712;2023-12-20T08:45:40;7;4;
80643;PMS5003;70010;60.224;24.712;2023-12-20T08:48:06;4;2;
80643;PMS5003;70010;60.224;24.712;2023-12-20T08:50:31;2;2;
80643;PMS5003;70010;60.224;24.712;2023-12-20T08:52:56;0;0;
80643;PMS5003;70010;60.224;24.712;2023-12-20T08:55:21;1;1;
80643;PMS5003;70010;60.224;24.712;2023-12-20T08:57:47;1;1;
80643;PMS5003;70010;60.224;24.712;2023-12-20T09:00:13;2;2;
80643;PMS5003;70010;60.224;24.712;2023-12-20T09:02:37;2;0;
80643;PMS5003;70010;60.224;24.712;2023-12-20T09:05:03;2;0;
80643;PMS5003;70010;60.224;24.712;2023-12-20T09:07:28;1;1;
80643;PMS5003;70010;60.224;24.712;2023-12-20T09:09:53;2;1;
80643;PMS5003;70010;60.224;24.712;2023-12-20T09:12:19;2;1;
80643;PMS5003;70010;60.224;24.712;2023-12-20T09:14:44;3;0;
80643;PMS5003;70010;60.224;24.712;2023-12-20T09:17:09;1;1;
80643;PMS5003;70010;60.224;24.712;2023-12-20T09:19:34;1;1;
80643;PMS5003;70010;60.224;24.712;2023-12-20T09:22:00;2;1;
80643;PMS5003;70010;60.224;24.712;2023-12-20T09:24:25;0;0;
80643;PMS5003;70010;60.224;24.712;2023-12-20T09:26:50;3;1;
80643;PMS5003;70010;60.224;24.712;2023-12-20T09:29:16;1;1;
80643;PMS5003;70010;60.224;24.712;2023-12-20T09:31:41;5;1;
80643;PMS5003;70010;60.224;24.712;2023-12-20T09:34:06;2;1;
80643;PMS5003;70010;60.224;24.712;2023-12-20T09:36:32;8;1;
80643;PMS5003;70010;60.224;24.712;2023-12-20T09:38:58;2;2;
80643;PMS5003;70010;60.224;24.712;2023-12-20T09:41:23;2;0;
80643;PMS5003;70010;60.224;24.712;2023-12-20T09:43:48;1;1;
80643;PMS5003;70010;60.224;24.712;2023-12-20T09:46:14;4;4;
80643;PMS5003;70010;60.224;24.712;2023-12-20T09:48:39;0;0;
80643;PMS5003;70010;60.224;24.712;2023-12-20T09:51:05;1;1;
80643;PMS5003;70010;60.224;24.712;2023-12-20T09:53:30;1;0;
80643;PMS5003;70010;60.224;24.712;2023-12-20T09:55:55;2;2;
80643;PMS5003;70010;60.224;24.712;2023-12-20T09:58:21;1;1;
80643;PMS5003;70010;60.224;24.712;2023-12-20T10:00:46;1;1;
80643;PMS5003;70010;60.224;24.712;2023-12-20T10:03:11;1;0;
80643;PMS5003;70010;60.224;24.712;2023-12-20T10:05:37;3;2;
80643;PMS5003;70010;60.224;24.712;2023-12-20T10:08:02;2;1;
80643;PMS5003;70010;60.224;24.712;2023-12-20T10:10:27;1;1;
80643;PMS5003;70010;60.224;24.712;2023-12-20T10:15:18;1;0;
80643;PMS5003;70010;60.224;24.712;2023-12-20T10:17:43;2;1;
80643;PMS5003;70010;60.224;24.712;2023-12-20T10:20:09;3;2;
80643;PMS5003;70010;60.224;24.712;2023-12-20T10:22:34;1;1;
80643;PMS5003;70010;60.224;24.712;2023-12-20T10:24:59;2;1;
80643;PMS5003;70010;60.224;24.712;2023-12-20T10:27:25;1;1;
80643;PMS5003;70010;60.224;24.712;2023-12-20T10:29:50;4;0;
80643;PMS5003;70010;60.224;24.712;2023-12-20T10:32:21;2;1;
80643;PMS5003;70010;60.224;24.712;2023-12-20T10:34:41;2;1;
80643;PMS5003;70010;60.224;24.712;2023-12-20T10:37:06;1;1;
80643;PMS5003;70010;60.224;24.712;2023-12-20T10:39:32;2;1;
80643;PMS5003;70010;60.224;24.712;2023-12-20T10:41:57;4;2;
80643;PMS5003;70010;60.224;24.712;2023-12-20T10:44:22;1;1;
80643;PMS5003;70010;60.224;24.712;2023-12-20T10:46:48;1;1;
80643;PMS5003;70010;60.224;24.712;2023-12-20T10:49:13;0;0;
80643;PMS5003;70010;60.224;24.712;2023-12-20T10:51:38;0;0;
80643;PMS5003;70010;60.224;24.712;2023-12-20T10:54:04;4;1;
80643;PMS5003;70010;60.224;24.712;2023-12-20T10:56:30;2;2;
80643;PMS5003;70010;60.224;24.712;2023-12-20T10:58:55;1;1;
80643;PMS5003;70010;60.224;24.712;2023-12-20T11:01:20;1;1;
80643;PMS5003;70010;60.224;24.712;2023-12-20T11:03:48;1;1;
80643;PMS5003;70010;60.224;24.712;2023-12-20T11:06:12;1;1;
80643;PMS5003;70010;60.224;24.712;2023-12-20T11:08:38;3;1;
80643;PMS5003;70010;60.224;24.712;2023-12-20T11:11:03;1;0;
80643;PMS5003;70010;60.224;24.712;2023-12-20T11:13:27;1;1;
80643;PMS5003;70010;60.224;24.712;2023-12-20T11:15:52;0;0;
80643;PMS5003;70010;60.224;24.712;2023-12-20T11:18:17;4;1;
80643;PMS5003;70010;60.224;24.712;2023-12-20T11:20:42;2;0;
80643;PMS5003;70010;60.224;24.712;2023-12-20T11:23:09;2;1;
80643;PMS5003;70010;60.224;24.712;2023-12-20T11:30:24;1;0;
80643;PMS5003;70010;60.224;24.712;2023-12-20T11:32:49;1;1;
80643;PMS5003;70010;60.224;24.712;2023-12-20T11:35:18;1;1;
80643;PMS5003;70010;60.224;24.712;2023-12-20T11:37:40;2;2;
80643;PMS5003;70010;60.224;24.712;2023-12-20T11:40:06;4;2;
80643;PMS5003;70010;60.224;24.712;2023-12-20T11:42:32;9;4;
80643;PMS5003;70010;60.224;24.712;2023-12-20T11:44:56;0;0;
80643;PMS5003;70010;60.224;24.712;2023-12-20T11:47:22;2;1;
80643;PMS5003;70010;60.224;24.712;2023-12-20T11:49:47;3;2;
80643;PMS5003;70010;60.224;24.712;2023-12-20T11:52:13;3;2;
80643;PMS5003;70010;60.224;24.712;2023-12-20T11:54:38;2;1;
80643;PMS5003;70010;60.224;24.712;2023-12-20T11:57:04;3;1;
80643;PMS5003;70010;60.224;24.712;2023-12-20T11:59:30;2;2;
80643;PMS5003;70010;60.224;24.712;2023-12-20T12:01:54;1;1;
80643;PMS5003;70010;60.224;24.712;2023-12-20T12:04:20;5;0;
80643;PMS5003;70010;60.224;24.712;2023-12-20T12:06:46;3;2;
80643;PMS5003;70010;60.224;24.712;2023-12-20T12:09:11;4;2;
80643;PMS5003;70010;60.224;24.712;2023-12-20T12:11:36;1;1;
80643;PMS5003;70010;60.224;24.712;2023-12-20T12:14:02;2;1;
80643;PMS5003;70010;60.224;24.712;2023-12-20T12:16:27;2;0;
80643;PMS5003;70010;60.224;24.712;2023-12-20T12:18:56;0;0;
80643;PMS5003;70010;60.224;24.712;2023-12-20T12:21:18;1;1;
80643;PMS5003;70010;60.224;24.712;2023-12-20T12:23:43;2;1;
80643;PMS5003;70010;60.224;24.712;2023-12-20T12:26:08;0;0;
80643;PMS5003;70010;60.224;24.712;2023-12-20T12:28:34;1;1;
80643;PMS5003;70010;60.224;24.712;2023-12-20T12:30:59;1;1;
80643;PMS5003;70010;60.224;24.712;2023-12-20T12:33:24;3;1;
80643;PMS5003;70010;60.224;24.712;2023-12-20T12:35:50;0;0;
80643;PMS5003;70010;60.224;24.712;2023-12-20T12:38:16;1;1;
80643;PMS5003;70010;60.224;24.712;2023-12-20T12:40:43;0;0;
80643;PMS5003;70010;60.224;24.712;2023-12-20T12:43:07;1;1;
80643;PMS5003;70010;60.224;24.712;2023-12-20T12:45:32;1;1;
80643;PMS5003;70010;60.224;24.712;2023-12-20T12:47:57;3;3;
80643;PMS5003;70010;60.224;24.712;2023-12-20T12:50:23;2;2;
80643;PMS5003;70010;60.224;24.712;2023-12-20T12:52:48;1;1;
80643;PMS5003;70010;60.224;24.712;2023-12-20T12:55:14;3;1;
80643;PMS5003;70010;60.224;24.712;2023-12-20T12:57:39;2;2;
80643;PMS5003;70010;60.224;24.712;2023-12-20T13:00:05;5;2;
80643;PMS5003;70010;60.224;24.712;2023-12-20T13:02:30;3;3;
80643;PMS5003;70010;60.224;24.712;2023-12-20T13:04:55;3;2;
80643;PMS5003;70010;60.224;24.712;2023-12-20T13:07:20;3;1;
80643;PMS5003;70010;60.224;24.712;2023-12-20T13:09:46;3;1;
80643;PMS5003;70010;60.224;24.712;2023-12-20T13:12:11;2;2;
80643;PMS5003;70010;60.224;24.712;2023-12-20T13:14:36;3;1;
80643;PMS5003;70010;60.224;24.712;2023-12-20T13:17:02;2;2;
80643;PMS5003;70010;60.224;24.712;2023-12-20T13:19:27;1;1;
80643;PMS5003;70010;60.224;24.712;2023-12-20T13:21:53;1;1;
80643;PMS5003;70010;60.224;24.712;2023-12-20T13:24:18;2;2;
80643;PMS5003;70010;60.224;24.712;2023-12-20T13:26:43;3;2;
80643;PMS5003;70010;60.224;24.712;2023-12-20T13:29:08;2;2;
80643;PMS5003;70010;60.224;24.712;2023-12-20T13:31:34;3;1;
80643;PMS5003;70010;60.224;24.712;2023-12-20T13:33:59;2;1;
80643;PMS5003;70010;60.224;24.712;2023-12-20T13:36:24;3;3;
80643;PMS5003;70010;60.224;24.712;2023-12-20T13:38:49;3;2;
80643;PMS5003;70010;60.224;24.712;2023-12-20T13:41:15;2;2;
80643;PMS5003;70010;60.224;24.712;2023-12-20T13:43:40;2;2;
80643;PMS5003;70010;60.224;24.712;2023-12-20T13:46:05;2;2;
80643;PMS5003;70010;60.224;24.712;2023-12-20T13:48:31;2;2;
80643;PMS5003;70010;60.224;24.712;2023-12-20T13:50:56;5;3;
80643;PMS5003;70010;60.224;24.712;2023-12-20T13:53:21;4;4;
80643;PMS5003;70010;60.224;24.712;2023-12-20T13:55:47;4;4;
80643;PMS5003;70010;60.224;24.712;2023-12-20T13:58:12;3;3;
80643;PMS5003;70010;60.224;24.712;2023-12-20T14:00:38;4;2;
80643;PMS5003;70010;60.224;24.712;2023-12-20T14:03:03;4;4;
80643;PMS5003;70010;60.224;24.712;2023-12-20T14:05:28;5;4;
80643;PMS5003;70010;60.224;24.712;2023-12-20T14:07:53;10;6;
80643;PMS5003;70010;60.224;24.712;2023-12-20T14:10:19;6;5;
80643;PMS5003;70010;60.224;24.712;2023-12-20T14:12:44;4;4;
80643;PMS5003;70010;60.224;24.712;2023-12-20T14:15:10;3;3;
80643;PMS5003;70010;60.224;24.712;2023-12-20T14:17:35;3;3;
80643;PMS5003;70010;60.224;24.712;2023-12-20T14:20:01;4;3;
80643;PMS5003;70010;60.224;24.712;2023-12-20T14:22:26;5;3;
80643;PMS5003;70010;60.224;24.712;2023-12-20T14:24:51;5;4;
80643;PMS5003;70010;60.224;24.712;2023-12-20T14:27:17;3;3;
80643;PMS5003;70010;60.224;24.712;2023-12-20T14:29:42;6;4;
80643;PMS5003;70010;60.224;24.712;2023-12-20T14:32:07;6;4;
80643;PMS5003;70010;60.224;24.712;2023-12-20T14:34:33;4;3;
80643;PMS5003;70010;60.224;24.712;2023-12-20T14:36:58;4;2;
80643;PMS5003;70010;60.224;24.712;2023-12-20T14:39:24;3;3;
80643;PMS5003;70010;60.224;24.712;2023-12-20T14:41:49;3;3;
80643;PMS5003;70010;60.224;24.712;2023-12-20T14:44:15;5;3;
80643;PMS5003;70010;60.224;24.712;2023-12-20T14:46:40;6;3;
80643;PMS5003;70010;60.224;24.712;2023-12-20T14:49:05;3;3;
80643;PMS5003;70010;60.224;24.712;2023-12-20T14:51:31;3;3;
80643;PMS5003;70010;60.224;24.712;2023-12-20T14:53:56;6;3;
80643;PMS5003;70010;60.224;24.712;2023-12-20T14:56:23;6;3;
80643;PMS5003;70010;60.224;24.712;2023-12-20T14:58:47;2;2;
80643;PMS5003;70010;60.224;24.712;2023-12-20T15:01:13;3;3;
80643;PMS5003;70010;60.224;24.712;2023-12-20T15:03:38;2;2;
80643;PMS5003;70010;60.224;24.712;2023-12-20T15:06:03;4;3;
80643;PMS5003;70010;60.224;24.712;2023-12-20T15:08:28;4;4;
80643;PMS5003;70010;60.224;24.712;2023-12-20T15:10:54;8;6;
80643;PMS5003;70010;60.224;24.712;2023-12-20T15:13:19;5;3;
80643;PMS5003;70010;60.224;24.712;2023-12-20T15:15:45;6;4;
80643;PMS5003;70010;60.224;24.712;2023-12-20T15:18:10;3;3;
80643;PMS5003;70010;60.224;24.712;2023-12-20T15:20:35;4;3;
80643;PMS5003;70010;60.224;24.712;2023-12-20T15:23:01;5;4;
80643;PMS5003;70010;60.224;24.712;2023-12-20T15:25:26;5;3;
80643;PMS5003;70010;60.224;24.712;2023-12-20T15:27:51;7;7;
80643;PMS5003;70010;60.224;24.712;2023-12-20T15:30:18;12;4;
80643;PMS5003;70010;60.224;24.712;2023-12-20T15:32:43;7;5;
80643;PMS5003;70010;60.224;24.712;2023-12-20T15:35:08;5;4;
80643;PMS5003;70010;60.224;24.712;2023-12-20T15:37:34;6;5;
80643;PMS5003;70010;60.224;24.712;2023-12-20T15:39:59;9;6;
80643;PMS5003;70010;60.224;24.712;2023-12-20T15:42:24;4;4;
80643;PMS5003;70010;60.224;24.712;2023-12-20T15:44:50;16;7;
80643;PMS5003;70010;60.224;24.712;2023-12-20T15:47:15;7;5;
80643;PMS5003;70010;60.224;24.712;2023-12-20T15:49:40;10;7;
80643;PMS5003;70010;60.224;24.712;2023-12-20T15:52:06;5;5;
80643;PMS5003;70010;60.224;24.712;2023-12-20T15:54:31;7;5;
80643;PMS5003;70010;60.224;24.712;2023-12-20T15:56:56;12;10;
80643;PMS5003;70010;60.224;24.712;2023-12-20T15:59:22;14;12;
80643;PMS5003;70010;60.224;24.712;2023-12-20T16:01:47;13;13;
80643;PMS5003;70010;60.224;24.712;2023-12-20T16:04:12;15;15;
80643;PMS5003;70010;60.224;24.712;2023-12-20T16:06:37;15;15;
80643;PMS5003;70010;60.224;24.712;2023-12-20T16:09:03;11;11;
80643;PMS5003;70010;60.224;24.712;2023-12-20T16:11:28;11;11;
80643;PMS5003;70010;60.224;24.712;2023-12-20T16:13:54;12;12;
80643;PMS5003;70010;60.224;24.712;2023-12-20T16:16:19;13;12;
80643;PMS5003;70010;60.224;24.712;2023-12-20T16:18:44;21;12;
80643;PMS5003;70010;60.224;24.712;2023-12-20T16:21:10;13;10;
80643;PMS5003;70010;60.224;24.712;2023-12-20T16:23:35;13;13;
80643;PMS5003;70010;60.224;24.712;2023-12-20T16:26:00;24;15;
80643;PMS5003;70010;60.224;24.712;2023-12-20T16:28:26;25;16;